Friday, October 19, 2018, 11:18 AM GMT
Back to Local

CYYG, Charlottetown, P. E. I.

Location: , , Canada Lat: 46.283
Local Time: 11:18 AM GMT (11:18 GMT) Lon: -63.133
Time Zone: GMT Elev: 157 ft

Show me the last for .
Show Decoded

2018-10-19 11:00 METAR CYYG 191100Z 28009G18KT 15SM FEW015 BKN044 00/M06 A2996 RMK SF1SC7 SF TR
                 SLP150 =
2018-10-19 10:00 METAR CYYG 191000Z 30010G19KT 260V320 15SM -SN BKN043 00/M06 A2994 RMK SC7
                 SLP143 =
2018-10-19 09:51 METAR CYYG 190951Z 28011G18KT 15SM -SN OVC045 00/M06 A2994 RMK SC8 SLP142 =
2018-10-19 09:00 METAR CYYG 190900Z 29011G22KT 260V320 15SM OVC050 00/M06 A2992 RMK SC8 SLP135 =
2018-10-19 08:44 METAR CYYG 190844Z 29012G23KT 15SM OVC051 00/M06 A2991 RMK SC8 SLP133 =
2018-10-19 08:00 METAR CYYG 190800Z 28015G24KT 15SM -SN OVC045 01/M06 A2990 RMK SC8 SLP128 =
2018-10-19 07:00 METAR CYYG 190700Z 29015G28KT 15SM -SN OVC057 01/M06 A2987 RMK SC8 SLP119 =
2018-10-19 06:00 METAR CYYG 190600Z 29016G24KT 15SM -SN OVC058 01/M06 A2986 RMK SC8 SLP114 =
2018-10-19 05:00 METAR CYYG 190500Z 28014G23KT 15SM -SN BKN060 01/M06 A2984 RMK SC6 SLP107 =
2018-10-19 04:00 METAR CYYG 190400Z 29013G26KT 15SM -SN BKN050 01/M05 A2982 RMK SC6 SLP103 =
2018-10-19 03:00 METAR CYYG 190300Z 29018G28KT 15SM OVC050 02/M05 A2981 RMK SC8 SLP098 =
2018-10-19 02:00 METAR CYYG 190200Z 29017G30KT 15SM -SN OVC053 02/M06 A2980 RMK SC8 SLP094 =
2018-10-19 01:00 METAR CYYG 190100Z 30015G26KT 15SM -SN OVC050 03/M06 A2978 RMK SC8 SLP087 =
2018-10-19 00:00 METAR CYYG 190000Z 29016G25KT 15SM -SN OVC045 03/M06 A2975 RMK SC8 SLP078 =
2018-10-18 23:00 METAR CYYG 182300Z 30020G32KT 15SM -SN OVC052 03/M05 A2972 RMK SC8 SLP066 =
2018-10-18 22:21 METAR CYYG 182221Z 30017G30KT 15SM -SN BKN051 03/M04 A2969 RMK SC7 SLP057 =
2018-10-18 22:00 METAR CYYG 182200Z 30018G33KT 15SM BKN042 03/M04 A2968 RMK SC7 SLP054 =
2018-10-18 21:15 METAR CYYG 182115Z 31020G32KT 15SM FEW024 BKN051 03/M03 A2965 RMK CU1SC6 SLP043
                 =
2018-10-18 21:00 METAR CYYG 182100Z 30016G30KT 12SM -SN FEW021 OVC039 02/M03 A2964 RMK CU2SC6
                 SLP040 =
2018-10-18 20:00 METAR CYYG 182000Z 30016G30KT 3SM -SN SCT010 BKN022 OVC036 02/M01 A2960 RMK
                 SF3SC3SC2 SLP027 =
2018-10-18 19:00 METAR CYYG 181900Z 29013G22KT 3SM -SN FEW010 BKN016 OVC035 02/01 A2958 RMK
                 SF2SC4SC2 SLP019 =
2018-10-18 18:00 METAR CYYG 181800Z 29014G23KT 1 1/2SM -SN SCT010 OVC020 01/M00 A2957 RMK SC3SC5
                 SLP017 =
2018-10-18 17:45 METAR CYYG 181745Z 28015G25KT 1SM -SN OVC020 01/M01 A2957 RMK SC8 SLP015 =
2018-10-18 17:38 METAR CYYG 181738Z 29012G27KT 2SM -SN OVC030 02/M01 A2956 RMK SC8 SLP014 =
2018-10-18 17:11 METAR CYYG 181711Z 30019G27KT 10SM -SN SCT026 OVC040 03/M02 A2956 RMK CU3SC5
                 SLP012 =
2018-10-18 17:00 METAR CYYG 181700Z 28016G28KT 15SM -SHGS SCT022 OVC035 03/M02 A2955 RMK CU4SC4
                 SLP010 =
2018-10-18 16:37 METAR CYYG 181637Z 28013G29KT 15SM -SHGS OVC036 02/M01 A2955 RMK SC8 SLP009 =
2018-10-18 16:30 METAR CYYG 181630Z 29013G27KT 1SM -SHGS OVC035 03/M02 A2955 RMK SC8 SLP010 =
2018-10-18 16:09 METAR CYYG 181609Z 28018G26KT 15SM -SHGS OVC032 03/M03 A2955 RMK SC8 CVCTV CLD
                 EMBD SLP010 =
2018-10-18 16:00 METAR CYYG 181600Z 29015G23KT 15SM VCSH FEW024 OVC040 03/M03 A2955 RMK CU2SC6
                 VIS N 5 SLP010 =
2018-10-18 15:00 METAR CYYG 181500Z 28012G25KT 15SM SCT032 OVC044 03/M03 A2955 RMK SC4SC4 SLP011
                 =
2018-10-18 14:00 METAR CYYG 181400Z 28013G23KT 15SM OVC029 03/M03 A2955 RMK SC8 CIG RAG SLP010 =
2018-10-18 13:00 METAR CYYG 181300Z 28018G25KT 15SM FEW020 BKN030 BKN110 03/M03 A2954 RMK
                 CU2SC4AC1 SLP008 =
2018-10-18 12:00 METAR CYYG 181200Z 29012G24KT 15SM FEW020 SCT032 BKN110 BKN250 04/M01 A2953 RMK
                 CU2SC2AC2CI1 CI TR SLP004 =

Support USWX by starting your Amazon purchase here.